createdAt,value
2022-07-30T00:01:44.241Z,101211.75
2022-07-30T00:04:10.953Z,101207.09
2022-07-30T00:06:40.066Z,101208.50
2022-07-30T00:09:06.812Z,101212.31
2022-07-30T00:11:33.691Z,101211.03
2022-07-30T00:14:00.433Z,101200.25
2022-07-30T00:16:27.279Z,101203.13
2022-07-30T00:18:54.086Z,101200.81
2022-07-30T00:21:35.852Z,101208.34
2022-07-30T00:24:05.629Z,101199.56
2022-07-30T00:26:32.418Z,101199.56
2022-07-30T00:28:59.188Z,101198.00
2022-07-30T00:31:26.080Z,101198.88
2022-07-30T00:33:52.766Z,101189.78
2022-07-30T00:36:19.463Z,101194.88
2022-07-30T00:38:46.221Z,101189.31
2022-07-30T00:41:12.983Z,101188.47
2022-07-30T00:43:42.926Z,101188.88
2022-07-30T00:46:09.691Z,101195.13
2022-07-30T00:48:36.572Z,101197.41
2022-07-30T00:51:03.314Z,101197.94
2022-07-30T00:53:29.964Z,101191.41
2022-07-30T00:55:56.701Z,101194.97
2022-07-30T00:58:23.397Z,101198.81
2022-07-30T01:00:50.118Z,101199.66
2022-07-30T01:03:16.823Z,101199.97
2022-07-30T01:05:43.492Z,101199.66
2022-07-30T01:08:10.147Z,101196.75
2022-07-30T01:10:36.881Z,101204.00
2022-07-30T01:13:04.499Z,101199.19
2022-07-30T01:15:31.445Z,101201.75
2022-07-30T01:18:00.333Z,101196.53
2022-07-30T01:21:05.649Z,101202.34
2022-07-30T01:23:37.390Z,101198.38
2022-07-30T01:26:04.807Z,101200.31
2022-07-30T01:28:39.498Z,101209.66
2022-07-30T01:31:07.138Z,101204.38
2022-07-30T01:33:35.837Z,101207.47
2022-07-30T01:36:03.160Z,101209.16
2022-07-30T01:38:34.958Z,101212.84
2022-07-30T01:41:02.851Z,101211.53
2022-07-30T01:43:31.160Z,101214.38
2022-07-30T01:45:58.185Z,101215.94
2022-07-30T01:48:26.028Z,101212.78
2022-07-30T01:50:55.052Z,101212.09
2022-07-30T01:53:24.813Z,101210.56
2022-07-30T01:55:52.301Z,101210.50
2022-07-30T01:58:20.516Z,101205.81
2022-07-30T02:00:49.533Z,101210.53
2022-07-30T02:03:16.370Z,101216.19
2022-07-30T02:05:51.125Z,101210.63
2022-07-30T02:08:27.118Z,101221.91
2022-07-30T02:11:08.133Z,101219.34
2022-07-30T02:13:42.374Z,101219.03
2022-07-30T02:16:24.644Z,101225.38
2022-07-30T02:19:06.751Z,101221.28
2022-07-30T02:21:38.360Z,101228.00
2022-07-30T02:24:08.697Z,101226.69
2022-07-30T02:26:36.272Z,101221.94
2022-07-30T02:29:04.926Z,101217.19
2022-07-30T02:31:34.447Z,101214.72
2022-07-30T02:34:03.759Z,101224.88
2022-07-30T02:36:31.425Z,101228.06
2022-07-30T02:38:58.732Z,101220.50
2022-07-30T02:41:27.393Z,101225.72
2022-07-30T02:43:55.046Z,101231.88
2022-07-30T02:46:23.265Z,101228.81
2022-07-30T02:48:50.609Z,101233.44
2022-07-30T02:51:17.761Z,101226.00
2022-07-30T02:53:46.809Z,101222.13
2022-07-30T02:56:16.083Z,101229.06
2022-07-30T02:58:44.434Z,101223.78
2022-07-30T03:01:12.371Z,101228.41
2022-07-30T03:03:40.581Z,101229.88
2022-07-30T03:06:07.918Z,101228.50
2022-07-30T03:08:34.708Z,101231.97
2022-07-30T03:11:03.351Z,101226.25
2022-07-30T03:13:30.070Z,101230.50
2022-07-30T03:15:58.548Z,101226.69
2022-07-30T03:18:28.401Z,101220.69
2022-07-30T03:20:56.799Z,101219.88
2022-07-30T03:23:24.114Z,101222.22
2022-07-30T03:25:55.039Z,101231.28
2022-07-30T03:28:22.997Z,101231.03
2022-07-30T03:30:50.633Z,101243.22
2022-07-30T03:33:18.022Z,101243.84
2022-07-30T03:35:47.274Z,101237.94
2022-07-30T03:38:15.049Z,101240.81
2022-07-30T03:40:42.715Z,101249.72
2022-07-30T03:43:32.475Z,101239.31
2022-07-30T03:45:57.994Z,101249.03
2022-07-30T03:48:25.563Z,101248.28
2022-07-30T03:50:52.207Z,101253.19
2022-07-30T03:53:19.534Z,101248.69
2022-07-30T03:55:46.242Z,101252.97
2022-07-30T03:58:12.976Z,101248.31
2022-07-30T04:00:40.954Z,101250.03
2022-07-30T04:03:08.276Z,101250.88
2022-07-30T04:05:37.404Z,101253.81
2022-07-30T04:08:07.883Z,101256.91
2022-07-30T04:10:34.714Z,101262.59
2022-07-30T04:13:01.407Z,101263.63
2022-07-30T04:16:37.798Z,101264.94
2022-07-30T04:18:16.129Z,101263.72
2022-07-30T04:20:45.224Z,101282.16
2022-07-30T04:23:12.249Z,101273.59
2022-07-30T04:25:40.373Z,101279.56
2022-07-30T04:28:07.309Z,101274.22
2022-07-30T04:30:35.054Z,101275.69
2022-07-30T04:33:03.814Z,101286.66
2022-07-30T04:35:50.985Z,101287.03
2022-07-30T04:38:18.782Z,101296.06
2022-07-30T04:40:46.014Z,101307.16
2022-07-30T04:43:12.683Z,101301.06
2022-07-30T04:45:40.461Z,101297.03
2022-07-30T04:48:07.582Z,101303.50
2022-07-30T04:50:36.424Z,101304.75
2022-07-30T04:53:03.366Z,101304.75
2022-07-30T04:55:30.804Z,101305.59
2022-07-30T04:57:58.179Z,101313.38
2022-07-30T05:00:24.914Z,101313.13
2022-07-30T05:02:52.312Z,101314.63
2022-07-30T05:05:19.280Z,101319.72
2022-07-30T05:07:46.270Z,101324.72
2022-07-30T05:10:13.630Z,101321.06
2022-07-30T05:12:40.414Z,101324.72
2022-07-30T05:15:09.482Z,101330.59
2022-07-30T05:17:36.710Z,101335.56
2022-07-30T05:20:04.383Z,101334.00
2022-07-30T05:22:31.161Z,101337.66
2022-07-30T05:24:58.301Z,101333.47
2022-07-30T05:27:25.051Z,101340.22
2022-07-30T05:29:52.168Z,101341.53
2022-07-30T05:32:23.946Z,101335.19
2022-07-30T05:34:53.733Z,101343.44
2022-07-30T05:37:20.418Z,101345.50
2022-07-30T05:39:59.267Z,101339.75
2022-07-30T05:42:30.330Z,101347.38
2022-07-30T05:44:57.123Z,101348.81
2022-07-30T05:47:23.849Z,101351.09
2022-07-30T05:49:50.584Z,101357.00
2022-07-30T05:52:17.268Z,101356.09
2022-07-30T05:54:43.963Z,101362.09
2022-07-30T05:57:10.745Z,101364.59
2022-07-30T05:59:37.465Z,101369.94
2022-07-30T06:02:04.765Z,101368.22
2022-07-30T06:04:31.482Z,101367.00
2022-07-30T06:06:58.466Z,101361.25
2022-07-30T06:09:26.419Z,101359.78
2022-07-30T06:12:03.716Z,101365.63
2022-07-30T06:14:32.296Z,101374.09
2022-07-30T06:16:59.304Z,101365.19
2022-07-30T06:19:26.645Z,101366.16
2022-07-30T06:22:05.808Z,101368.53
2022-07-30T06:24:34.001Z,101376.09
2022-07-30T06:27:00.983Z,101372.94
2022-07-30T06:29:27.936Z,101373.84
2022-07-30T06:31:54.656Z,101375.31
2022-07-30T06:34:21.595Z,101373.84
2022-07-30T06:36:49.057Z,101382.78
2022-07-30T06:39:53.790Z,101386.94
2022-07-30T06:42:02.866Z,101383.28
2022-07-30T06:44:30.169Z,101391.72
2022-07-30T06:46:56.866Z,101397.59
2022-07-30T06:49:23.621Z,101400.16
2022-07-30T06:51:50.402Z,101400.63
2022-07-30T06:54:17.362Z,101405.88
2022-07-30T06:56:44.293Z,101401.97
2022-07-30T06:59:10.947Z,101405.03
2022-07-30T07:01:37.841Z,101396.88
2022-07-30T07:04:04.874Z,101398.69
2022-07-30T07:06:31.553Z,101404.22
2022-07-30T07:08:58.221Z,101402.63
2022-07-30T07:11:25.235Z,101398.50
2022-07-30T07:13:52.034Z,101404.09
2022-07-30T07:16:25.077Z,101402.00
2022-07-30T07:18:52.612Z,101399.69
2022-07-30T07:21:20.076Z,101394.22
2022-07-30T07:23:48.671Z,101401.66
2022-07-30T07:26:16.102Z,101404.81
2022-07-30T07:28:43.239Z,101401.28
2022-07-30T07:31:10.890Z,101403.34
2022-07-30T07:33:38.088Z,101403.22
2022-07-30T07:36:05.086Z,101402.50
2022-07-30T07:38:31.768Z,101411.41
2022-07-30T07:40:58.551Z,101405.56
2022-07-30T07:43:25.455Z,101414.19
2022-07-30T07:45:52.227Z,101408.59
2022-07-30T07:48:19.550Z,101408.47
2022-07-30T07:50:46.200Z,101405.03
2022-07-30T07:53:13.042Z,101401.09
2022-07-30T07:55:40.213Z,101405.03
2022-07-30T07:58:06.972Z,101401.44
2022-07-30T08:00:33.719Z,101406.97
2022-07-30T08:03:00.435Z,101411.09
2022-07-30T08:05:58.217Z,101401.59
2022-07-30T08:08:14.239Z,101403.03
2022-07-30T08:10:40.929Z,101394.84
2022-07-30T08:13:49.134Z,101396.28
2022-07-30T08:15:57.340Z,101397.00
2022-07-30T08:18:24.189Z,101401.50
2022-07-30T08:20:51.704Z,101399.53
2022-07-30T08:23:19.413Z,101399.25
2022-07-30T08:25:46.125Z,101404.66
2022-07-30T08:28:35.354Z,101400.22
2022-07-30T08:31:02.178Z,101395.19
2022-07-30T08:33:29.424Z,101405.59
2022-07-30T08:35:59.173Z,101405.84
2022-07-30T08:38:30.824Z,101402.84
2022-07-30T08:40:58.415Z,101417.09
2022-07-30T08:43:26.311Z,101414.63
2022-07-30T08:45:53.995Z,101416.91
2022-07-30T08:48:22.570Z,101414.16
2022-07-30T08:50:50.072Z,101409.34
2022-07-30T08:53:17.573Z,101422.38
2022-07-30T08:55:44.889Z,101417.16
2022-07-30T08:58:24.725Z,101413.69
2022-07-30T09:00:51.588Z,101409.75
2022-07-30T09:03:18.416Z,101409.25
2022-07-30T09:05:45.108Z,101413.09
2022-07-30T09:08:11.825Z,101416.00
2022-07-30T09:10:38.636Z,101408.66
2022-07-30T09:13:43.221Z,101412.53
2022-07-30T09:16:20.333Z,101418.09
2022-07-30T09:18:47.180Z,101411.13
2022-07-30T09:21:28.714Z,101414.69
2022-07-30T09:23:56.405Z,101418.41
2022-07-30T09:26:23.152Z,101406.66
2022-07-30T09:28:49.825Z,101410.28
2022-07-30T09:31:17.630Z,101408.69
2022-07-30T09:33:45.432Z,101407.59
2022-07-30T09:36:18.495Z,101399.00
2022-07-30T09:38:51.718Z,101410.56
2022-07-30T09:41:40.722Z,101424.47
2022-07-30T09:44:07.785Z,101409.78
2022-07-30T09:46:42.581Z,101420.16
2022-07-30T09:49:20.359Z,101416.59
2022-07-30T09:51:54.482Z,101406.19
2022-07-30T09:54:52.037Z,101408.94
2022-07-30T09:57:26.470Z,101414.13
2022-07-30T10:00:00.011Z,101418.50
2022-07-30T10:02:32.400Z,101413.16
2022-07-30T10:05:14.459Z,101427.19
2022-07-30T10:07:58.559Z,101425.09
2022-07-30T10:10:31.195Z,101414.28
2022-07-30T10:13:04.639Z,101421.59
2022-07-30T10:15:33.584Z,101414.44
2022-07-30T10:18:02.896Z,101410.06
2022-07-30T10:20:34.869Z,101415.38
2022-07-30T10:23:07.800Z,101416.56
2022-07-30T10:25:36.897Z,101412.94
2022-07-30T10:28:17.643Z,101424.63
2022-07-30T10:30:45.374Z,101412.63
2022-07-30T10:33:34.570Z,101420.69
2022-07-30T10:35:59.368Z,101418.09
2022-07-30T10:38:33.332Z,101419.22
2022-07-30T10:41:08.854Z,101412.91
2022-07-30T10:44:11.694Z,101431.97
2022-07-30T10:47:06.506Z,101423.22
2022-07-30T10:49:40.668Z,101423.22
2022-07-30T10:52:08.773Z,101422.63
2022-07-30T10:54:40.489Z,101414.50
2022-07-30T10:57:14.666Z,101415.69
2022-07-30T10:59:52.595Z,101414.88
2022-07-30T11:02:20.646Z,101414.72
2022-07-30T11:04:49.860Z,101419.81
2022-07-30T11:07:25.408Z,101404.50
2022-07-30T11:10:04.819Z,101408.94
2022-07-30T11:12:46.175Z,101416.56
2022-07-30T11:15:19.966Z,101406.41
2022-07-30T11:18:04.789Z,101410.16
2022-07-30T11:20:39.313Z,101401.19
2022-07-30T11:23:14.022Z,101410.38
2022-07-30T11:25:51.503Z,101406.09
2022-07-30T11:28:41.777Z,101396.28
2022-07-30T11:31:54.874Z,101400.69
2022-07-30T11:34:18.892Z,101402.25
2022-07-30T11:37:18.313Z,101409.53
2022-07-30T11:39:57.683Z,101407.66
2022-07-30T11:42:35.354Z,101401.31
2022-07-30T11:45:17.256Z,101399.84
2022-07-30T11:47:45.853Z,101406.13
2022-07-30T11:50:19.231Z,101404.25
2022-07-30T11:52:57.864Z,101411.00
2022-07-30T11:55:33.672Z,101399.25
2022-07-30T11:58:02.442Z,101396.41
2022-07-30T12:00:40.800Z,101391.69
2022-07-30T12:03:09.821Z,101408.97
2022-07-30T12:05:36.583Z,101400.13
2022-07-30T12:08:03.497Z,101393.84
2022-07-30T12:10:30.231Z,101396.09
2022-07-30T12:13:16.220Z,101396.72
2022-07-30T12:15:47.433Z,101404.94
2022-07-30T12:18:26.288Z,101399.97
2022-07-30T12:20:55.334Z,101396.56
2022-07-30T12:23:25.092Z,101387.75
2022-07-30T12:25:52.262Z,101391.97
2022-07-30T12:28:24.731Z,101383.81
2022-07-30T12:30:52.559Z,101383.13
2022-07-30T12:33:20.447Z,101378.22
2022-07-30T12:35:55.389Z,101389.28
2022-07-30T12:38:23.423Z,101394.00
2022-07-30T12:41:03.584Z,101383.31
2022-07-30T12:43:48.619Z,101383.31
2022-07-30T12:46:26.855Z,101378.72
2022-07-30T12:49:19.152Z,101386.94
2022-07-30T12:52:00.421Z,101395.25
2022-07-30T12:54:27.940Z,101387.28
2022-07-30T12:57:03.244Z,101381.47
2022-07-30T12:59:31.744Z,101381.09
2022-07-30T13:02:00.710Z,101377.41
2022-07-30T13:04:28.122Z,101383.03
2022-07-30T13:07:05.534Z,101386.09
2022-07-30T13:09:32.514Z,101384.88
2022-07-30T13:11:59.375Z,101375.75
2022-07-30T13:14:27.226Z,101383.19
2022-07-30T13:16:56.050Z,101380.81
2022-07-30T13:19:23.064Z,101384.88
2022-07-30T13:21:50.230Z,101387.78
2022-07-30T13:24:18.388Z,101386.72
2022-07-30T13:26:45.536Z,101390.84
2022-07-30T13:29:13.682Z,101392.88
2022-07-30T13:31:43.155Z,101382.28
2022-07-30T13:34:10.861Z,101383.50
2022-07-30T13:36:37.515Z,101385.72
2022-07-30T13:39:04.497Z,101392.53
2022-07-30T13:41:31.252Z,101375.72
2022-07-30T13:43:58.013Z,101388.97
2022-07-30T13:46:24.768Z,101379.47
2022-07-30T13:48:52.251Z,101381.16
2022-07-30T13:51:19.014Z,101383.38
2022-07-30T13:53:45.944Z,101387.78
2022-07-30T13:56:13.169Z,101384.06
2022-07-30T13:58:40.394Z,101379.81
2022-07-30T14:01:07.558Z,101381.66
2022-07-30T14:03:35.399Z,101381.13
2022-07-30T14:06:10.500Z,101383.66
2022-07-30T14:08:37.937Z,101373.31
2022-07-30T14:11:04.681Z,101366.09
2022-07-30T14:13:31.409Z,101365.63
2022-07-30T14:15:58.220Z,101377.03
2022-07-30T14:18:24.939Z,101359.72
2022-07-30T14:20:53.782Z,101361.09
2022-07-30T14:23:20.808Z,101362.44
2022-07-30T14:25:47.740Z,101360.03
2022-07-30T14:28:14.862Z,101364.22
2022-07-30T14:30:42.176Z,101358.53
2022-07-30T14:33:08.986Z,101358.19
2022-07-30T14:35:35.690Z,101354.28
2022-07-30T14:38:03.716Z,101346.13
2022-07-30T14:40:30.635Z,101342.72
2022-07-30T14:42:58.043Z,101345.25
2022-07-30T14:45:25.539Z,101347.44
2022-07-30T14:47:52.540Z,101346.03
2022-07-30T14:50:19.547Z,101348.13
2022-07-30T14:52:47.627Z,101344.72
2022-07-30T14:55:14.676Z,101344.69
2022-07-30T14:57:43.550Z,101349.91
2022-07-30T15:00:12.861Z,101343.19
2022-07-30T15:02:40.984Z,101344.78
2022-07-30T15:05:08.757Z,101336.00
2022-07-30T15:07:35.451Z,101345.59
2022-07-30T15:10:09.335Z,101341.47
2022-07-30T15:12:39.513Z,101337.44
2022-07-30T15:15:08.427Z,101340.09
2022-07-30T15:17:39.791Z,101338.88
2022-07-30T15:20:09.254Z,101331.38
2022-07-30T15:22:36.448Z,101337.47
2022-07-30T15:25:03.181Z,101341.16
2022-07-30T15:27:33.948Z,101337.31
2022-07-30T15:30:01.150Z,101329.91
2022-07-30T15:32:27.780Z,101335.78
2022-07-30T15:35:05.118Z,101345.88
2022-07-30T15:37:31.824Z,101349.34
2022-07-30T15:39:58.762Z,101345.84
2022-07-30T15:42:27.464Z,101335.47
2022-07-30T15:45:15.336Z,101336.72
2022-07-30T15:47:40.872Z,101344.72
2022-07-30T15:50:08.349Z,101338.97
2022-07-30T15:52:36.699Z,101331.34
2022-07-30T15:55:05.194Z,101335.75
2022-07-30T15:57:32.024Z,101348.84
2022-07-30T15:59:59.297Z,101338.16
2022-07-30T16:02:28.415Z,101349.19
2022-07-30T16:04:56.925Z,101335.97
2022-07-30T16:07:23.662Z,101341.38
2022-07-30T16:09:50.337Z,101343.06
2022-07-30T16:12:17.015Z,101341.03
2022-07-30T16:14:43.830Z,101336.63
2022-07-30T16:17:14.222Z,101352.09
2022-07-30T16:19:45.090Z,101345.50
2022-07-30T16:22:12.880Z,101341.44
2022-07-30T16:24:50.064Z,101339.41
2022-07-30T16:27:16.825Z,101344.81
2022-07-30T16:29:43.488Z,101336.00
2022-07-30T16:32:10.242Z,101336.50
2022-07-30T16:34:38.929Z,101329.03
2022-07-30T16:37:05.681Z,101324.63
2022-07-30T16:39:36.913Z,101328.03
2022-07-30T16:42:06.687Z,101329.56
2022-07-30T16:44:34.569Z,101326.16
2022-07-30T16:47:01.264Z,101331.59
2022-07-30T16:49:28.121Z,101325.81
2022-07-30T16:51:55.039Z,101331.25
2022-07-30T16:54:21.696Z,101329.19
2022-07-30T16:56:52.805Z,101332.38
2022-07-30T16:59:20.611Z,101330.00
2022-07-30T17:01:48.137Z,101333.59
2022-07-30T17:04:15.207Z,101327.84
2022-07-30T17:06:44.134Z,101324.13
2022-07-30T17:09:12.083Z,101320.22
2022-07-30T17:11:47.380Z,101320.72
2022-07-30T17:14:19.146Z,101325.09
2022-07-30T17:16:45.960Z,101318.00
2022-07-30T17:19:15.332Z,101326.13
2022-07-30T17:21:42.147Z,101320.66
2022-07-30T17:24:14.094Z,101327.13
2022-07-30T17:26:43.694Z,101321.03
2022-07-30T17:29:15.338Z,101330.53
2022-07-30T17:31:44.478Z,101330.53
2022-07-30T17:34:13.948Z,101333.75
2022-07-30T17:36:42.659Z,101332.25
2022-07-30T17:40:18.750Z,101333.09
2022-07-30T17:42:04.589Z,101335.13
2022-07-30T17:44:31.334Z,101331.56
2022-07-30T17:46:58.004Z,101339.34
2022-07-30T17:49:24.972Z,101342.44
2022-07-30T17:51:51.677Z,101347.50
2022-07-30T17:54:18.405Z,101344.44
2022-07-30T17:56:47.777Z,101347.34
2022-07-30T17:59:14.533Z,101348.34
2022-07-30T18:01:41.418Z,101345.44
2022-07-30T18:04:08.288Z,101342.59
2022-07-30T18:06:35.353Z,101343.91
2022-07-30T18:09:03.036Z,101341.88
2022-07-30T18:11:29.825Z,101348.81
2022-07-30T18:13:56.973Z,101335.75
2022-07-30T18:16:24.782Z,101334.75
2022-07-30T18:18:51.594Z,101336.75
2022-07-30T18:21:18.525Z,101345.38
2022-07-30T18:23:45.443Z,101346.41
2022-07-30T18:26:12.727Z,101347.78
2022-07-30T18:28:39.495Z,101351.50
2022-07-30T18:31:06.477Z,101352.66
2022-07-30T18:33:33.302Z,101356.69
2022-07-30T18:36:00.079Z,101350.97
2022-07-30T18:38:26.775Z,101347.56
2022-07-30T18:40:59.402Z,101351.97
2022-07-30T18:43:27.803Z,101355.50
2022-07-30T18:45:55.632Z,101351.94
2022-07-30T18:48:29.039Z,101349.88
2022-07-30T18:50:55.705Z,101351.53
2022-07-30T18:53:22.369Z,101351.69
2022-07-30T18:55:49.129Z,101351.53
2022-07-30T18:58:15.948Z,101350.38
2022-07-30T19:00:44.215Z,101348.31
2022-07-30T19:03:16.318Z,101354.28
2022-07-30T19:05:44.387Z,101348.00
2022-07-30T19:08:11.076Z,101351.91
2022-07-30T19:10:37.875Z,101352.22
2022-07-30T19:13:05.528Z,101351.38
2022-07-30T19:15:32.376Z,101349.47
2022-07-30T19:17:59.429Z,101345.56
2022-07-30T19:20:26.785Z,101351.84
2022-07-30T19:23:05.329Z,101345.19
2022-07-30T19:25:33.939Z,101349.22
2022-07-30T19:28:02.444Z,101348.38
2022-07-30T19:30:30.442Z,101351.09
2022-07-30T19:33:14.228Z,101354.00
2022-07-30T19:35:46.922Z,101353.84
2022-07-30T19:38:23.719Z,101352.16
2022-07-30T19:40:51.043Z,101352.00
2022-07-30T19:43:23.836Z,101351.63
2022-07-30T19:45:51.361Z,101366.03
2022-07-30T19:48:29.486Z,101361.97
2022-07-30T19:53:53.367Z,101365.53
2022-07-30T19:56:20.221Z,101367.56
2022-07-30T19:58:50.172Z,101367.56
2022-07-30T20:01:16.875Z,101360.63
2022-07-30T20:03:45.935Z,101369.59
2022-07-30T20:06:15.956Z,101371.09
2022-07-30T20:09:00.410Z,101366.31
2022-07-30T20:11:36.054Z,101363.22
2022-07-30T20:14:03.406Z,101366.97
2022-07-30T20:16:30.150Z,101369.34
2022-07-30T20:18:59.314Z,101367.19
2022-07-30T20:21:57.806Z,101367.84
2022-07-30T20:24:15.390Z,101370.19
2022-07-30T20:26:42.286Z,101366.13
2022-07-30T20:29:19.014Z,101363.34
2022-07-30T20:31:46.405Z,101373.41
2022-07-30T20:34:23.559Z,101376.97
2022-07-30T20:37:04.336Z,101377.97
2022-07-30T20:39:42.650Z,101382.19
2022-07-30T20:42:13.936Z,101377.63
2022-07-30T20:44:50.693Z,101379.69
2022-07-30T20:47:34.871Z,101365.75
2022-07-30T20:50:10.705Z,101367.81
2022-07-30T20:52:40.489Z,101370.53
2022-07-30T20:55:09.260Z,101364.06
2022-07-30T20:57:56.406Z,101373.25
2022-07-30T21:00:23.400Z,101365.41
2022-07-30T21:02:52.159Z,101365.75
2022-07-30T21:05:20.064Z,101374.19
2022-07-30T21:07:47.034Z,101375.91
2022-07-30T21:10:14.586Z,101380.03
2022-07-30T21:12:44.844Z,101378.13
2022-07-30T21:15:23.874Z,101367.78
2022-07-30T21:17:51.535Z,101365.06
2022-07-30T21:20:27.542Z,101359.28
2022-07-30T21:22:56.073Z,101359.53
2022-07-30T21:25:32.562Z,101356.97
2022-07-30T21:28:02.841Z,101353.91
2022-07-30T21:30:30.854Z,101359.66
2022-07-30T21:32:58.305Z,101352.53
2022-07-30T21:35:25.453Z,101350.13
2022-07-30T21:37:59.396Z,101348.28
2022-07-30T21:40:28.673Z,101356.59
2022-07-30T21:42:56.215Z,101351.31
2022-07-30T21:45:27.003Z,101348.59
2022-07-30T21:48:07.305Z,101346.06
2022-07-30T21:50:33.993Z,101348.59
2022-07-30T21:53:01.175Z,101339.47
2022-07-30T21:55:27.977Z,101348.75
2022-07-30T21:58:00.236Z,101338.78
2022-07-30T22:00:48.582Z,101338.72
2022-07-30T22:04:03.044Z,101338.72
2022-07-30T22:06:05.054Z,101345.16
2022-07-30T22:08:39.266Z,101344.31
2022-07-30T22:11:09.092Z,101348.03
2022-07-30T22:13:53.493Z,101340.75
2022-07-30T22:16:21.964Z,101340.53
2022-07-30T22:18:50.021Z,101344.09
2022-07-30T22:21:18.490Z,101343.53
2022-07-30T22:23:54.782Z,101339.69
2022-07-30T22:26:28.341Z,101328.00
2022-07-30T22:28:55.369Z,101328.00
2022-07-30T22:31:24.541Z,101330.31
2022-07-30T22:33:57.720Z,101335.19
2022-07-30T22:36:24.662Z,101327.88
2022-07-30T22:38:58.545Z,101325.69
2022-07-30T22:41:28.785Z,101327.31
2022-07-30T22:43:58.372Z,101328.31
2022-07-30T22:46:30.972Z,101327.19
2022-07-30T22:48:58.008Z,101340.50
2022-07-30T22:51:26.189Z,101337.69
2022-07-30T22:57:04.078Z,101330.00
2022-07-30T23:00:00.062Z,101329.28
2022-07-30T23:02:17.863Z,101330.75
2022-07-30T23:04:44.769Z,101336.28
2022-07-30T23:07:14.003Z,101324.22
2022-07-30T23:09:52.004Z,101334.72
2022-07-30T23:12:15.155Z,101369.75
2022-07-30T23:12:20.142Z,101328.16
2022-07-30T23:12:30.761Z,101334.00
2022-07-30T23:14:48.795Z,101322.38
2022-07-30T23:17:15.507Z,101325.72
2022-07-30T23:19:42.181Z,101318.13
2022-07-30T23:22:12.255Z,101323.72
2022-07-30T23:24:39.040Z,101324.53
2022-07-30T23:27:06.421Z,101316.41
2022-07-30T23:29:33.284Z,101316.63
2022-07-30T23:31:59.964Z,101318.97
2022-07-30T23:34:26.736Z,101315.34
2022-07-30T23:36:57.125Z,101310.38
2022-07-30T23:39:24.885Z,101302.81
2022-07-30T23:41:51.605Z,101295.38
2022-07-30T23:44:18.368Z,101298.56
2022-07-30T23:46:45.042Z,101294.63
2022-07-30T23:49:11.801Z,101288.22
2022-07-30T23:51:39.135Z,101302.03
2022-07-30T23:54:06.497Z,101287.28
2022-07-30T23:56:33.244Z,101284.03
2022-07-30T23:59:00.576Z,101289.91
